createdAt,value
2022-09-21T00:01:35.379Z,85.71
2022-09-21T00:04:21.143Z,85.67
2022-09-21T00:07:06.444Z,85.58
2022-09-21T00:09:51.982Z,85.64
2022-09-21T00:12:40.359Z,85.27
2022-09-21T00:16:21.681Z,84.88
2022-09-21T00:19:07.345Z,84.85
2022-09-21T00:21:56.607Z,84.64
2022-09-21T00:24:42.377Z,84.72
2022-09-21T00:27:30.108Z,84.82
2022-09-21T00:30:15.880Z,84.65
2022-09-21T00:33:02.478Z,84.81
2022-09-21T00:35:47.923Z,84.98
2022-09-21T00:38:35.005Z,85.33
2022-09-21T00:41:21.309Z,85.20
2022-09-21T00:44:26.148Z,85.30
2022-09-21T00:47:15.717Z,85.49
2022-09-21T00:50:07.829Z,85.29
2022-09-21T00:52:57.415Z,85.65
2022-09-21T00:55:49.200Z,85.54
2022-09-21T00:58:40.670Z,85.78
2022-09-21T01:01:26.487Z,86.26
2022-09-21T01:04:16.839Z,86.11
2022-09-21T01:07:06.120Z,86.11
2022-09-21T01:09:55.461Z,86.11
2022-09-21T01:13:02.209Z,86.34
2022-09-21T01:16:03.429Z,86.43
2022-09-21T01:19:07.473Z,86.40
2022-09-21T01:22:47.735Z,86.72
2022-09-21T01:25:48.467Z,86.86
2022-09-21T01:29:01.881Z,86.91
2022-09-21T01:32:13.762Z,87.11
2022-09-21T01:35:08.736Z,87.10
2022-09-21T01:37:58.162Z,86.76
2022-09-21T01:40:50.231Z,87.09
2022-09-21T01:43:43.770Z,87.45
2022-09-21T01:46:32.130Z,87.81
2022-09-21T01:49:27.330Z,87.80
2022-09-21T01:52:26.097Z,87.57
2022-09-21T01:55:28.146Z,87.50
2022-09-21T01:58:22.382Z,87.53
2022-09-21T02:01:14.926Z,87.90
2022-09-21T02:04:08.128Z,87.25
2022-09-21T02:06:54.424Z,87.06
2022-09-21T02:09:39.843Z,87.35
2022-09-21T02:12:25.285Z,86.82
2022-09-21T02:15:11.058Z,86.52
2022-09-21T02:18:18.632Z,86.41
2022-09-21T02:21:09.120Z,86.16
2022-09-21T02:24:23.651Z,85.97
2022-09-21T02:27:18.429Z,86.32
2022-09-21T02:30:22.272Z,86.08
2022-09-21T02:33:26.551Z,86.70
2022-09-21T02:36:21.329Z,86.30
2022-09-21T02:39:13.692Z,86.74
2022-09-21T02:42:10.351Z,86.67
2022-09-21T02:45:05.091Z,86.11
2022-09-21T02:47:53.276Z,86.55
2022-09-21T02:50:46.538Z,86.60
2022-09-21T02:53:36.363Z,86.21
2022-09-21T02:56:22.829Z,86.43
2022-09-21T02:59:08.654Z,86.37
2022-09-21T03:01:55.809Z,87.00
2022-09-21T03:04:44.475Z,87.18
2022-09-21T03:07:29.801Z,87.29
2022-09-21T03:10:15.091Z,87.46
2022-09-21T03:13:01.637Z,87.32
2022-09-21T03:15:47.343Z,87.64
2022-09-21T03:18:33.253Z,87.47
2022-09-21T03:21:18.764Z,87.27
2022-09-21T03:24:04.034Z,87.49
2022-09-21T03:26:49.385Z,87.58
2022-09-21T03:29:34.751Z,87.88
2022-09-21T03:32:20.075Z,87.79
2022-09-21T03:35:06.055Z,87.84
2022-09-21T03:37:51.401Z,87.56
2022-09-21T03:40:36.823Z,87.17
2022-09-21T03:43:22.235Z,87.14
2022-09-21T03:46:07.710Z,87.01
2022-09-21T03:48:53.661Z,87.37
2022-09-21T03:51:39.611Z,87.36
2022-09-21T03:54:26.002Z,87.30
2022-09-21T03:57:11.401Z,87.31
2022-09-21T03:59:56.645Z,87.55
2022-09-21T04:02:42.197Z,87.42
2022-09-21T04:05:28.221Z,87.45
2022-09-21T04:08:13.971Z,87.51
2022-09-21T04:11:00.131Z,87.55
2022-09-21T04:13:49.738Z,87.43
2022-09-21T04:16:35.400Z,87.42
2022-09-21T04:19:22.354Z,87.43
2022-09-21T04:22:08.357Z,87.63
2022-09-21T04:24:53.698Z,88.02
2022-09-21T04:27:39.899Z,87.61
2022-09-21T04:30:25.359Z,88.02
2022-09-21T04:33:10.773Z,87.92
2022-09-21T04:35:56.259Z,87.52
2022-09-21T04:38:41.514Z,88.06
2022-09-21T04:41:27.238Z,88.00
2022-09-21T04:44:12.705Z,88.25
2022-09-21T04:46:58.873Z,88.09
2022-09-21T04:49:44.412Z,88.26
2022-09-21T04:52:29.722Z,88.09
2022-09-21T04:55:15.422Z,88.37
2022-09-21T04:58:01.076Z,88.72
2022-09-21T05:00:50.871Z,88.23
2022-09-21T05:03:36.230Z,88.86
2022-09-21T05:06:21.495Z,88.71
2022-09-21T05:09:25.378Z,88.54
2022-09-21T05:12:10.935Z,88.47
2022-09-21T05:14:56.285Z,88.54
2022-09-21T05:17:41.777Z,88.51
2022-09-21T05:20:27.358Z,88.58
2022-09-21T05:23:16.724Z,88.50
2022-09-21T05:26:02.490Z,88.45
2022-09-21T05:28:48.396Z,88.99
2022-09-21T05:31:43.988Z,88.66
2022-09-21T05:34:42.907Z,88.83
2022-09-21T05:38:00.897Z,88.28
2022-09-21T05:40:50.411Z,88.29
2022-09-21T05:43:36.229Z,88.35
2022-09-21T05:46:41.910Z,88.38
2022-09-21T05:49:35.758Z,87.92
2022-09-21T05:52:42.150Z,88.06
2022-09-21T05:56:02.973Z,88.37
2022-09-21T05:59:22.697Z,88.36
2022-09-21T06:02:28.877Z,88.71
2022-09-21T06:05:15.996Z,88.59
2022-09-21T06:08:01.656Z,88.88
2022-09-21T06:10:47.692Z,89.05
2022-09-21T06:13:33.030Z,88.74
2022-09-21T06:16:18.757Z,88.62
2022-09-21T06:19:04.299Z,89.15
2022-09-21T06:21:49.652Z,89.14
2022-09-21T06:24:35.327Z,89.62
2022-09-21T06:27:20.441Z,88.99
2022-09-21T06:30:06.533Z,89.31
2022-09-21T06:32:52.080Z,89.51
2022-09-21T06:35:37.762Z,89.54
2022-09-21T06:38:24.739Z,89.30
2022-09-21T06:41:10.767Z,89.02
2022-09-21T06:43:57.210Z,89.61
2022-09-21T06:46:43.153Z,89.44
2022-09-21T06:49:28.846Z,89.35
2022-09-21T06:52:14.648Z,88.76
2022-09-21T06:55:00.104Z,88.72
2022-09-21T06:57:46.429Z,88.80
2022-09-21T07:00:32.475Z,88.39
2022-09-21T07:03:18.248Z,87.97
2022-09-21T07:06:05.201Z,87.86
2022-09-21T07:12:00.230Z,87.41
2022-09-21T07:14:45.676Z,87.96
2022-09-21T07:17:33.213Z,88.25
2022-09-21T07:20:18.816Z,88.45
2022-09-21T07:23:15.282Z,87.49
2022-09-21T07:26:04.118Z,87.78
2022-09-21T07:28:49.416Z,87.84
2022-09-21T07:31:35.280Z,87.76
2022-09-21T07:34:20.985Z,87.91
2022-09-21T07:37:06.380Z,86.82
2022-09-21T07:39:53.034Z,87.07
2022-09-21T07:42:38.279Z,87.15
2022-09-21T07:45:24.495Z,87.53
2022-09-21T07:48:09.888Z,86.85
2022-09-21T07:50:57.678Z,87.22
2022-09-21T07:53:44.677Z,87.17
2022-09-21T07:56:30.335Z,87.44
2022-09-21T07:59:15.672Z,86.34
2022-09-21T08:02:01.242Z,86.28
2022-09-21T08:04:47.070Z,85.96
2022-09-21T08:07:33.090Z,85.43
2022-09-21T08:10:18.450Z,85.83
2022-09-21T08:13:03.787Z,85.85
2022-09-21T08:15:58.417Z,85.74
2022-09-21T08:18:44.042Z,86.28
2022-09-21T08:21:29.243Z,85.92
2022-09-21T08:24:14.653Z,85.94
2022-09-21T08:27:00.338Z,86.21
2022-09-21T08:29:46.277Z,86.30
2022-09-21T08:32:49.776Z,85.64
2022-09-21T08:35:37.261Z,85.62
2022-09-21T08:38:23.063Z,84.92
2022-09-21T08:41:44.049Z,84.72
2022-09-21T08:44:39.304Z,84.38
2022-09-21T08:47:33.910Z,84.71
2022-09-21T08:50:28.704Z,85.13
2022-09-21T08:53:19.563Z,84.88
2022-09-21T08:56:05.487Z,84.95
2022-09-21T08:58:51.114Z,85.48
2022-09-21T09:02:05.919Z,85.44
2022-09-21T09:05:03.340Z,85.30
2022-09-21T09:07:54.872Z,83.67
2022-09-21T09:11:11.719Z,83.26
2022-09-21T09:14:06.866Z,83.29
2022-09-21T09:17:18.890Z,83.69
2022-09-21T09:20:16.343Z,84.52
2022-09-21T09:23:19.762Z,84.39
2022-09-21T09:26:16.650Z,84.46
2022-09-21T09:29:18.964Z,84.40
2022-09-21T09:32:05.396Z,84.92
2022-09-21T09:35:02.533Z,84.85
2022-09-21T09:37:50.093Z,84.66
2022-09-21T09:40:56.438Z,84.75
2022-09-21T09:44:16.182Z,85.08
2022-09-21T09:47:08.250Z,84.36
2022-09-21T09:50:05.738Z,84.23
2022-09-21T09:52:55.101Z,84.92
2022-09-21T09:55:43.856Z,84.97
2022-09-21T09:58:43.801Z,84.07
2022-09-21T10:01:49.069Z,83.80
2022-09-21T10:04:37.606Z,82.65
2022-09-21T10:07:35.165Z,82.18
2022-09-21T10:10:33.949Z,82.72
2022-09-21T10:13:30.792Z,83.01
2022-09-21T10:16:21.772Z,82.74
2022-09-21T10:19:16.795Z,83.16
2022-09-21T10:22:04.744Z,83.91
2022-09-21T10:24:54.322Z,84.26
2022-09-21T10:27:44.025Z,85.16
2022-09-21T10:30:29.654Z,84.78
2022-09-21T10:33:22.445Z,84.35
2022-09-21T10:36:25.643Z,84.90
2022-09-21T10:39:20.465Z,85.57
2022-09-21T10:42:12.195Z,86.15
2022-09-21T10:45:17.607Z,86.25
2022-09-21T10:48:06.266Z,86.00
2022-09-21T10:50:53.634Z,86.14
2022-09-21T10:53:39.910Z,86.19
2022-09-21T10:56:25.946Z,86.49
2022-09-21T10:59:19.098Z,86.80
2022-09-21T11:02:27.034Z,86.71
2022-09-21T11:05:22.202Z,86.83
2022-09-21T11:08:16.689Z,86.90
2022-09-21T11:11:11.258Z,86.21
2022-09-21T11:14:05.184Z,85.79
2022-09-21T11:17:04.966Z,85.60
2022-09-21T11:19:57.569Z,86.15
2022-09-21T11:23:00.850Z,86.31
2022-09-21T11:26:07.720Z,85.38
2022-09-21T11:29:12.355Z,84.65
2022-09-21T11:31:58.377Z,85.70
2022-09-21T11:35:21.446Z,85.98
2022-09-21T11:38:43.117Z,86.27
2022-09-21T11:41:37.907Z,86.40
2022-09-21T11:44:55.996Z,86.48
2022-09-21T11:48:00.652Z,85.47
2022-09-21T11:50:58.634Z,86.40
2022-09-21T11:54:09.841Z,86.71
2022-09-21T11:57:22.009Z,86.79
2022-09-21T12:00:16.313Z,86.25
2022-09-21T12:03:22.129Z,86.68
2022-09-21T12:06:21.477Z,87.25
2022-09-21T12:09:45.151Z,87.77
2022-09-21T12:12:40.264Z,86.61
2022-09-21T12:15:32.314Z,86.29
2022-09-21T12:19:09.596Z,85.86
2022-09-21T12:22:11.176Z,83.27
2022-09-21T12:25:02.212Z,82.21
2022-09-21T12:27:58.668Z,82.08
2022-09-21T12:30:49.254Z,82.29
2022-09-21T12:34:19.620Z,83.15
2022-09-21T12:37:07.655Z,83.88
2022-09-21T12:40:02.792Z,84.40
2022-09-21T12:43:05.662Z,85.12
2022-09-21T12:45:58.130Z,85.06
2022-09-21T12:48:45.197Z,85.10
2022-09-21T12:51:34.558Z,85.78
2022-09-21T12:54:41.943Z,85.60
2022-09-21T12:57:53.594Z,85.96
2022-09-21T13:01:02.617Z,86.28
2022-09-21T13:04:13.318Z,86.24
2022-09-21T13:07:41.498Z,85.41
2022-09-21T13:10:45.160Z,84.40
2022-09-21T13:13:35.426Z,83.24
2022-09-21T13:16:27.892Z,83.80
2022-09-21T13:19:13.306Z,82.24
2022-09-21T13:22:33.441Z,83.64
2022-09-21T13:25:28.179Z,84.39
2022-09-21T13:28:15.539Z,84.66
2022-09-21T13:31:39.393Z,85.38
2022-09-21T13:34:38.521Z,85.22
2022-09-21T13:37:29.238Z,83.61
2022-09-21T13:40:14.945Z,83.37
2022-09-21T13:43:16.907Z,82.11
2022-09-21T13:46:07.116Z,81.66
2022-09-21T13:48:54.359Z,82.46
2022-09-21T13:51:52.309Z,82.03
2022-09-21T13:54:45.778Z,82.27
2022-09-21T13:57:46.412Z,82.58
2022-09-21T14:00:41.160Z,82.94
2022-09-21T14:03:48.980Z,82.98
2022-09-21T14:06:42.610Z,82.97
2022-09-21T14:09:31.926Z,81.77
2022-09-21T14:12:25.125Z,82.17
2022-09-21T14:15:12.698Z,80.78
2022-09-21T14:18:19.153Z,81.57
2022-09-21T14:21:09.136Z,79.38
2022-09-21T14:24:34.726Z,79.32
2022-09-21T14:27:36.771Z,79.37
2022-09-21T14:30:29.315Z,78.56
2022-09-21T14:33:42.708Z,78.26
2022-09-21T14:36:41.430Z,78.74
2022-09-21T14:39:33.863Z,79.08
2022-09-21T14:42:27.346Z,78.71
2022-09-21T14:45:18.330Z,78.93
2022-09-21T14:48:25.878Z,80.13
2022-09-21T14:51:38.198Z,81.21
2022-09-21T14:55:04.115Z,81.88
2022-09-21T14:58:04.408Z,81.00
2022-09-21T15:00:50.419Z,81.51
2022-09-21T15:04:17.019Z,81.80
2022-09-21T15:07:54.411Z,80.74
2022-09-21T15:11:08.979Z,81.44
2022-09-21T15:14:29.573Z,81.47
2022-09-21T15:17:25.136Z,81.29
2022-09-21T15:20:23.538Z,81.20
2022-09-21T15:23:19.195Z,81.19
2022-09-21T15:26:09.375Z,81.45
2022-09-21T15:29:11.515Z,81.60
2022-09-21T15:31:59.101Z,81.48
2022-09-21T15:34:44.505Z,81.86
2022-09-21T15:37:35.240Z,81.80
2022-09-21T15:40:22.332Z,82.09
2022-09-21T15:43:18.993Z,81.70
2022-09-21T15:46:07.480Z,81.78
2022-09-21T15:48:53.065Z,81.15
2022-09-21T15:51:41.773Z,81.13
2022-09-21T15:55:01.264Z,81.01
2022-09-21T15:57:50.198Z,80.93
2022-09-21T16:00:39.958Z,81.10
2022-09-21T16:03:26.112Z,81.59
2022-09-21T16:06:44.600Z,81.39
2022-09-21T16:09:43.562Z,81.61
2022-09-21T16:12:43.639Z,81.30
2022-09-21T16:15:32.027Z,81.14
2022-09-21T16:18:41.430Z,81.30
2022-09-21T16:21:37.581Z,81.10
2022-09-21T16:24:23.700Z,80.84
2022-09-21T16:27:16.637Z,81.06
2022-09-21T16:30:02.607Z,81.03
2022-09-21T16:32:48.600Z,80.89
2022-09-21T16:35:40.292Z,81.18
2022-09-21T16:38:26.391Z,81.02
2022-09-21T16:41:12.536Z,81.56
2022-09-21T16:44:00.603Z,81.67
2022-09-21T16:46:49.222Z,82.11
2022-09-21T16:49:34.930Z,82.30
2022-09-21T16:52:21.551Z,82.60
2022-09-21T16:55:08.364Z,82.66
2022-09-21T16:57:54.716Z,83.23
2022-09-21T17:00:42.767Z,83.84
2022-09-21T17:03:31.068Z,83.94
2022-09-21T17:06:21.814Z,84.16
2022-09-21T17:09:20.749Z,84.42
2022-09-21T17:12:11.155Z,84.50
2022-09-21T17:14:56.514Z,84.76
2022-09-21T17:17:41.970Z,84.73
2022-09-21T17:20:41.771Z,84.40
2022-09-21T17:23:29.320Z,84.56
2022-09-21T17:26:19.426Z,84.55
2022-09-21T17:29:19.230Z,84.35
2022-09-21T17:32:10.483Z,84.01
2022-09-21T17:35:27.592Z,84.27
2022-09-21T17:38:14.651Z,84.31
2022-09-21T17:41:04.867Z,84.89
2022-09-21T17:44:20.052Z,84.64
2022-09-21T17:47:22.927Z,84.92
2022-09-21T17:50:19.652Z,84.98
2022-09-21T17:53:24.223Z,84.85
2022-09-21T17:56:09.907Z,85.03
2022-09-21T17:59:01.022Z,84.78
2022-09-21T18:01:46.520Z,84.96
2022-09-21T18:04:34.843Z,85.19
2022-09-21T18:07:20.534Z,85.11
2022-09-21T18:10:08.004Z,85.27
2022-09-21T18:13:07.099Z,85.50
2022-09-21T18:16:03.626Z,85.56
2022-09-21T18:19:04.298Z,86.14
2022-09-21T18:21:55.520Z,86.19
2022-09-21T18:24:41.571Z,86.42
2022-09-21T18:27:27.345Z,86.82
2022-09-21T18:30:13.442Z,86.49
2022-09-21T18:33:11.133Z,86.16
2022-09-21T18:36:06.036Z,86.13
2022-09-21T18:39:08.709Z,86.05
2022-09-21T18:42:08.698Z,86.23
2022-09-21T18:45:11.083Z,85.81
2022-09-21T18:48:03.396Z,85.90
2022-09-21T18:50:57.639Z,86.54
2022-09-21T18:53:49.229Z,86.00
2022-09-21T18:56:37.858Z,86.15
2022-09-21T18:59:25.053Z,86.35
2022-09-21T19:02:16.023Z,86.09
2022-09-21T19:05:03.554Z,86.27
2022-09-21T19:08:12.478Z,86.46
2022-09-21T19:11:19.468Z,85.98
2022-09-21T19:14:32.513Z,86.22
2022-09-21T19:17:43.128Z,85.64
2022-09-21T19:21:04.455Z,85.61
2022-09-21T19:23:56.388Z,85.59
2022-09-21T19:26:47.157Z,85.08
2022-09-21T19:30:11.790Z,85.74
2022-09-21T19:33:02.871Z,85.64
2022-09-21T19:35:49.649Z,85.87
2022-09-21T19:38:35.721Z,85.67
2022-09-21T19:41:38.239Z,86.24
2022-09-21T19:44:31.235Z,86.19
2022-09-21T19:47:29.905Z,86.29
2022-09-21T19:50:18.031Z,86.11
2022-09-21T19:53:22.446Z,86.21
2022-09-21T19:56:34.085Z,86.55
2022-09-21T19:59:38.413Z,86.01
2022-09-21T20:02:40.556Z,86.13
2022-09-21T20:05:45.729Z,86.43
2022-09-21T20:09:02.527Z,86.16
2022-09-21T20:12:02.536Z,86.10
2022-09-21T20:15:00.449Z,85.92
2022-09-21T20:17:52.540Z,86.02
2022-09-21T20:20:38.799Z,86.07
2022-09-21T20:23:25.081Z,85.92
2022-09-21T20:26:23.830Z,85.82
2022-09-21T20:29:09.319Z,85.91
2022-09-21T20:31:56.162Z,85.66
2022-09-21T20:34:41.777Z,85.35
2022-09-21T20:37:27.367Z,85.42
2022-09-21T20:40:14.058Z,85.30
2022-09-21T20:43:03.563Z,85.70
2022-09-21T20:45:49.282Z,86.04
2022-09-21T20:48:34.714Z,85.71
2022-09-21T20:51:20.127Z,85.73
2022-09-21T20:54:06.212Z,85.80
2022-09-21T20:56:51.496Z,85.78
2022-09-21T20:59:36.813Z,86.20
2022-09-21T21:02:22.154Z,85.46
2022-09-21T21:05:08.563Z,86.04
2022-09-21T21:07:53.911Z,86.02
2022-09-21T21:10:44.890Z,85.87
2022-09-21T21:13:30.379Z,85.93
2022-09-21T21:16:16.360Z,85.50
2022-09-21T21:19:01.559Z,85.70
2022-09-21T21:21:47.202Z,85.95
2022-09-21T21:24:41.649Z,85.71
2022-09-21T21:27:28.040Z,85.30
2022-09-21T21:30:14.100Z,85.65
2022-09-21T21:33:00.115Z,85.57
2022-09-21T21:35:45.834Z,85.80
2022-09-21T21:38:31.235Z,85.35
2022-09-21T21:41:17.023Z,85.60
2022-09-21T21:44:02.571Z,85.76
2022-09-21T21:46:48.025Z,85.45
2022-09-21T21:49:33.704Z,85.49
2022-09-21T21:52:19.053Z,85.64
2022-09-21T21:55:05.700Z,86.16
2022-09-21T21:57:51.948Z,85.80
2022-09-21T22:00:37.205Z,85.95
2022-09-21T22:03:22.559Z,85.97
2022-09-21T22:06:10.151Z,86.27
2022-09-21T22:08:56.714Z,86.67
2022-09-21T22:11:43.047Z,86.27
2022-09-21T22:14:29.112Z,86.74
2022-09-21T22:17:14.653Z,86.64
2022-09-21T22:20:00.099Z,86.79
2022-09-21T22:22:45.382Z,86.29
2022-09-21T22:25:30.773Z,86.76
2022-09-21T22:28:16.504Z,86.93
2022-09-21T22:31:03.685Z,86.91
2022-09-21T22:33:49.347Z,86.99
2022-09-21T22:36:36.089Z,86.51
2022-09-21T22:39:21.700Z,87.19
2022-09-21T22:42:07.307Z,87.32
2022-09-21T22:44:52.517Z,87.25
2022-09-21T22:47:37.938Z,87.01
2022-09-21T22:50:23.229Z,86.69
2022-09-21T22:53:08.624Z,86.75
2022-09-21T22:56:09.374Z,86.78
2022-09-21T22:58:57.536Z,87.46
2022-09-21T23:01:42.851Z,86.67
2022-09-21T23:04:28.244Z,86.53
2022-09-21T23:07:14.744Z,86.73
2022-09-21T23:10:01.393Z,86.90
2022-09-21T23:12:49.754Z,86.90
2022-09-21T23:15:34.984Z,86.71
2022-09-21T23:18:21.176Z,86.80
2022-09-21T23:21:15.334Z,87.11
2022-09-21T23:24:02.494Z,86.86
2022-09-21T23:26:50.409Z,86.49
2022-09-21T23:29:36.102Z,86.91
2022-09-21T23:32:21.741Z,86.95
2022-09-21T23:35:07.094Z,86.71
2022-09-21T23:37:52.598Z,86.78
2022-09-21T23:40:37.983Z,87.33
2022-09-21T23:43:23.276Z,87.07
2022-09-21T23:46:10.994Z,86.67
2022-09-21T23:48:57.514Z,87.24
2022-09-21T23:51:43.279Z,87.06
2022-09-21T23:54:28.679Z,86.98
2022-09-21T23:57:13.982Z,87.26
2022-09-21T23:59:59.341Z,86.87
